createdAt,value
2019-06-01T00:04:03.363Z,15.23
2019-06-01T00:09:07.908Z,15.26
2019-06-01T00:14:11.297Z,15.34
2019-06-01T00:19:14.691Z,15.34
2019-06-01T00:24:18.454Z,15.40
2019-06-01T00:29:22.174Z,15.40
2019-06-01T00:34:25.881Z,15.35
2019-06-01T00:39:29.281Z,15.38
2019-06-01T00:44:33.015Z,15.20
2019-06-01T00:49:36.416Z,15.20
2019-06-01T00:54:40.176Z,15.18
2019-06-01T00:59:43.879Z,15.21
2019-06-01T01:04:48.788Z,15.01
2019-06-01T01:09:52.917Z,15.01
2019-06-01T01:14:56.678Z,14.81
2019-06-01T01:20:00.071Z,14.68
2019-06-01T01:25:04.529Z,14.72
2019-06-01T01:30:08.167Z,14.70
2019-06-01T01:35:11.644Z,14.66
2019-06-01T01:40:15.184Z,14.51
2019-06-01T01:45:18.818Z,14.38
2019-06-01T01:50:24.857Z,14.47
2019-06-01T01:55:28.255Z,14.54
2019-06-01T02:00:45.833Z,14.55
2019-06-01T02:05:49.213Z,14.44
2019-06-01T02:10:53.321Z,14.24
2019-06-01T02:15:58.217Z,14.00
2019-06-01T02:21:02.710Z,13.93
2019-06-01T02:26:06.258Z,13.90
2019-06-01T02:31:09.621Z,13.83
2019-06-01T02:36:13.316Z,13.83
2019-06-01T02:41:16.882Z,13.93
2019-06-01T02:46:20.272Z,14.01
2019-06-01T02:51:23.666Z,14.06
2019-06-01T02:56:27.061Z,14.02
2019-06-01T03:01:34.353Z,14.00
2019-06-01T03:06:39.743Z,13.85
2019-06-01T03:11:43.882Z,13.70
2019-06-01T03:16:50.459Z,13.68
2019-06-01T03:21:56.898Z,13.65
2019-06-01T03:27:02.908Z,13.72
2019-06-01T03:32:29.725Z,13.73
2019-06-01T03:37:13.576Z,13.65
2019-06-01T03:42:17.911Z,13.58
2019-06-01T03:47:21.314Z,13.55
2019-06-01T03:52:24.963Z,13.60
2019-06-01T03:57:28.414Z,13.72
2019-06-01T04:02:33.368Z,13.83
2019-06-01T04:07:39.048Z,13.87
2019-06-01T04:12:42.578Z,13.78
2019-06-01T04:17:45.980Z,13.70
2019-06-01T04:22:49.437Z,13.90
2019-06-01T04:27:52.835Z,14.02
2019-06-01T04:32:56.535Z,13.95
2019-06-01T04:38:00.237Z,13.91
2019-06-01T04:43:03.899Z,14.06
2019-06-01T04:48:08.399Z,14.20
2019-06-01T04:53:13.457Z,14.36
2019-06-01T04:58:17.018Z,14.60
2019-06-01T05:03:20.690Z,14.78
2019-06-01T05:08:24.432Z,14.90
2019-06-01T05:13:28.142Z,14.97
2019-06-01T05:18:31.599Z,15.04
2019-06-01T05:23:34.990Z,15.29
2019-06-01T05:28:38.390Z,15.47
2019-06-01T05:33:42.102Z,15.68
2019-06-01T05:38:45.820Z,15.87
2019-06-01T05:43:49.539Z,16.07
2019-06-01T05:48:53.262Z,16.25
2019-06-01T05:53:56.658Z,16.43
2019-06-01T05:59:00.411Z,16.62
2019-06-01T06:04:03.872Z,16.83
2019-06-01T06:09:09.173Z,17.06
2019-06-01T06:14:13.356Z,17.29
2019-06-01T06:19:20.263Z,17.53
2019-06-01T06:24:22.693Z,17.72
2019-06-01T06:29:26.426Z,17.88
2019-06-01T06:34:29.804Z,18.01
2019-06-01T06:39:33.437Z,18.17
2019-06-01T06:44:37.072Z,18.35
2019-06-01T06:49:40.709Z,18.50
2019-06-01T06:54:44.143Z,18.68
2019-06-01T06:59:47.774Z,18.90
2019-06-01T07:04:51.452Z,19.11
2019-06-01T07:09:55.189Z,19.35
2019-06-01T07:14:58.884Z,19.61
2019-06-01T07:20:02.518Z,19.72
2019-06-01T07:25:07.261Z,19.77
2019-06-01T07:30:11.185Z,20.06
2019-06-01T07:35:14.891Z,20.25
2019-06-01T07:40:18.583Z,20.37
2019-06-01T07:45:22.878Z,20.42
2019-06-01T07:50:26.348Z,20.51
2019-06-01T07:55:29.843Z,20.66
2019-06-01T08:00:33.369Z,20.75
2019-06-01T08:05:36.772Z,20.89
2019-06-01T08:10:40.440Z,21.12
2019-06-01T08:15:44.167Z,21.40
2019-06-01T08:20:47.564Z,21.71
2019-06-01T08:25:51.299Z,21.96
2019-06-01T08:30:54.930Z,22.23
2019-06-01T08:35:58.328Z,22.44
2019-06-01T08:41:01.731Z,22.65
2019-06-01T08:46:05.555Z,22.81
2019-06-01T08:51:09.281Z,22.90
2019-06-01T08:56:13.510Z,23.22
2019-06-01T09:01:16.911Z,23.51
2019-06-01T09:06:20.645Z,23.60
2019-06-01T09:11:25.082Z,23.76
2019-06-01T09:16:29.649Z,24.02
2019-06-01T09:21:33.652Z,23.98
2019-06-01T09:26:37.270Z,23.99
2019-06-01T09:31:40.672Z,24.30
2019-06-01T09:36:44.408Z,24.65
2019-06-01T09:41:48.128Z,24.60
2019-06-01T09:46:51.531Z,24.69
2019-06-01T09:51:54.928Z,24.58
2019-06-01T09:56:58.592Z,25.04
2019-06-01T10:02:02.225Z,24.78
2019-06-01T10:07:05.624Z,24.34
2019-06-01T10:12:09.022Z,23.93
2019-06-01T10:17:12.757Z,24.17
2019-06-01T10:22:16.478Z,24.20
2019-06-01T10:27:19.887Z,23.82
2019-06-01T10:32:23.605Z,23.85
2019-06-01T10:37:27.337Z,24.31
2019-06-01T10:42:32.677Z,24.36
2019-06-01T10:47:36.502Z,24.23
2019-06-01T10:52:40.454Z,24.22
2019-06-01T10:57:43.802Z,24.28
2019-06-01T11:02:47.199Z,24.75
2019-06-01T11:07:50.880Z,25.20
2019-06-01T11:12:54.614Z,25.79
2019-06-01T11:17:58.322Z,26.45
2019-06-01T11:23:02.143Z,26.64
2019-06-01T11:28:05.877Z,26.91
2019-06-01T11:33:09.275Z,27.19
2019-06-01T11:38:12.670Z,27.27
2019-06-01T11:43:16.417Z,26.96
2019-06-01T11:48:20.049Z,26.26
2019-06-01T11:53:23.778Z,25.98
2019-06-01T11:58:27.171Z,25.73
2019-06-01T12:03:30.574Z,25.76
2019-06-01T12:08:34.370Z,25.61
2019-06-01T12:13:38.390Z,25.54
2019-06-01T12:18:42.646Z,25.63
2019-06-01T12:23:47.469Z,25.51
2019-06-01T12:28:51.071Z,25.91
2019-06-01T12:33:54.757Z,26.75
2019-06-01T12:38:58.162Z,27.24
2019-06-01T12:44:09.124Z,27.01
2019-06-01T12:49:12.514Z,27.31
2019-06-01T12:54:16.196Z,27.55
2019-06-01T12:59:19.923Z,27.43
2019-06-01T13:04:23.641Z,27.10
2019-06-01T13:09:27.278Z,26.74
2019-06-01T13:14:30.977Z,26.45
2019-06-01T13:19:34.697Z,26.38
2019-06-01T13:24:38.098Z,26.38
2019-06-01T13:29:41.834Z,26.33
2019-06-01T13:34:45.309Z,26.63
2019-06-01T13:39:55.615Z,27.26
2019-06-01T13:44:54.650Z,27.91
2019-06-01T13:49:58.358Z,28.48
2019-06-01T13:55:02.253Z,28.89
2019-06-01T14:00:09.307Z,28.97
2019-06-01T14:05:13.211Z,29.09
2019-06-01T14:10:17.134Z,28.94
2019-06-01T14:15:20.531Z,29.26
2019-06-01T14:20:23.939Z,29.69
2019-06-01T14:25:27.583Z,29.77
2019-06-01T14:30:30.980Z,29.70
2019-06-01T14:35:35.841Z,29.80
2019-06-01T14:40:41.509Z,29.44
2019-06-01T14:45:45.236Z,29.50
2019-06-01T14:50:49.549Z,29.38
2019-06-01T14:55:53.888Z,29.86
2019-06-01T15:00:58.518Z,30.00
2019-06-01T15:06:02.228Z,29.74
2019-06-01T15:11:05.930Z,29.91
2019-06-01T15:16:09.563Z,30.02
2019-06-01T15:21:12.960Z,30.30
2019-06-01T15:26:16.594Z,29.91
2019-06-01T15:31:20.233Z,29.86
2019-06-01T15:36:23.947Z,29.96
2019-06-01T15:41:27.603Z,29.81
2019-06-01T15:46:31.008Z,29.75
2019-06-01T15:51:34.749Z,30.18
2019-06-01T15:56:38.149Z,29.29
2019-06-01T16:01:41.553Z,29.33
2019-06-01T16:06:44.939Z,29.03
2019-06-01T16:11:48.579Z,29.61
2019-06-01T16:16:53.731Z,29.88
2019-06-01T16:21:58.069Z,29.70
2019-06-01T16:27:02.670Z,30.05
2019-06-01T16:32:06.455Z,30.19
2019-06-01T16:37:10.183Z,30.17
2019-06-01T16:42:13.685Z,30.34
2019-06-01T16:47:17.358Z,30.10
2019-06-01T16:52:21.037Z,30.14
2019-06-01T16:57:24.781Z,30.38
2019-06-01T17:02:28.154Z,30.00
2019-06-01T17:07:31.892Z,30.28
2019-06-01T17:12:35.289Z,29.88
2019-06-01T17:17:39.026Z,29.68
2019-06-01T17:22:42.759Z,29.48
2019-06-01T17:27:46.159Z,29.54
2019-06-01T17:32:49.553Z,29.40
2019-06-01T17:37:53.122Z,29.14
2019-06-01T17:42:56.517Z,28.91
2019-06-01T17:48:15.910Z,28.81
2019-06-01T17:53:06.715Z,28.72
2019-06-01T17:58:12.228Z,28.68
2019-06-01T18:03:15.657Z,28.50
2019-06-01T18:08:19.129Z,28.29
2019-06-01T18:13:22.711Z,28.07
2019-06-01T18:18:26.111Z,27.48
2019-06-01T18:23:29.508Z,26.88
2019-06-01T18:28:33.273Z,26.57
2019-06-01T18:33:36.685Z,26.03
2019-06-01T18:38:40.085Z,25.54
2019-06-01T18:43:43.825Z,25.16
2019-06-01T18:48:47.461Z,24.65
2019-06-01T18:53:51.166Z,24.00
2019-06-01T18:58:54.567Z,23.50
2019-06-01T19:03:58.298Z,23.18
2019-06-01T19:09:01.707Z,22.66
2019-06-01T19:14:05.689Z,22.22
2019-06-01T19:19:10.241Z,21.97
2019-06-01T19:24:14.701Z,21.82
2019-06-01T19:29:18.343Z,21.65
2019-06-01T19:34:21.970Z,21.52
2019-06-01T19:39:25.934Z,21.30
2019-06-01T19:44:29.600Z,21.02
2019-06-01T19:49:32.995Z,20.87
2019-06-01T19:54:36.396Z,20.63
2019-06-01T19:59:39.795Z,20.46
2019-06-01T20:04:43.197Z,20.23
2019-06-01T20:09:46.648Z,20.04
2019-06-01T20:14:52.084Z,19.99
2019-06-01T20:19:55.774Z,19.94
2019-06-01T20:24:59.411Z,19.89
2019-06-01T20:30:03.325Z,19.68
2019-06-01T20:35:07.379Z,19.56
2019-06-01T20:40:12.174Z,19.53
2019-06-01T20:45:16.806Z,19.49
2019-06-01T20:50:20.943Z,19.31
2019-06-01T20:55:24.686Z,19.11
2019-06-01T21:00:31.701Z,19.07
2019-06-01T21:05:33.532Z,19.10
2019-06-01T21:10:37.174Z,19.11
2019-06-01T21:15:40.912Z,18.93
2019-06-01T21:20:44.299Z,18.55
2019-06-01T21:25:48.057Z,18.41
2019-06-01T21:30:51.763Z,18.56
2019-06-01T21:35:55.162Z,18.66
2019-06-01T21:40:58.571Z,18.59
2019-06-01T21:46:03.018Z,18.54
2019-06-01T21:51:06.750Z,18.43
2019-06-01T21:56:10.157Z,18.38
2019-06-01T22:01:14.400Z,18.43
2019-06-01T22:06:18.954Z,18.36
2019-06-01T22:11:23.509Z,18.19
2019-06-01T22:16:27.882Z,18.08
2019-06-01T22:21:31.415Z,18.09
2019-06-01T22:26:35.152Z,18.10
2019-06-01T22:31:38.866Z,18.01
2019-06-01T22:36:42.263Z,18.09
2019-06-01T22:41:46.003Z,17.96
2019-06-01T22:46:49.749Z,17.98
2019-06-01T22:51:53.144Z,17.89
2019-06-01T22:56:56.858Z,17.88
2019-06-01T23:02:00.578Z,17.87
2019-06-01T23:07:04.163Z,17.75
2019-06-01T23:12:07.819Z,17.65
2019-06-01T23:17:11.539Z,17.40
2019-06-01T23:22:15.265Z,17.26
2019-06-01T23:27:18.662Z,17.25
2019-06-01T23:32:22.467Z,17.34
2019-06-01T23:37:26.677Z,17.51
2019-06-01T23:42:30.900Z,17.63
2019-06-01T23:47:34.586Z,17.54
2019-06-01T23:52:37.987Z,17.48
2019-06-01T23:57:41.759Z,17.32
